Time,TemperatureF,DewpointF,PressureIn,WindDirection,WindDirectionDegrees,WindSpeedMPH,WindSpeedGustMPH,Humidity,HourlyPrecipIn,Conditions,Clouds,dailyrainin,SoftwareType,DateUTC
2013-06-12 18:55:00,101.3,62.2,29.91,NW,315,0.9,3.4,28,0.00,,---,0.00,VWS V14.01,2013-06-12 23:55:00,
2013-06-12 18:56:00,101.3,62.2,29.91,NNW,338,2.7,2.7,28,0.00,,---,0.00,VWS V14.01,2013-06-12 23:56:00,
2013-06-12 18:57:00,101.3,62.2,29.91,North,0,1.3,2.7,28,0.00,,---,0.00,VWS V14.01,2013-06-12 23:57:00,
2013-06-12 19:03:00,100.8,61.7,29.91,NE,45,2.5,4.3,28,0.00,,---,0.00,VWS V14.01,2013-06-13 00:03:00,
2013-06-12 19:05:00,100.8,61.7,29.91,NE,45,0.0,0.0,28,0.00,,---,0.00,VWS V14.01,2013-06-13 00:05:00,
2013-06-12 19:10:00,100.8,61.7,29.91,NE,45,0.0,0.9,28,0.00,,---,0.00,VWS V14.01,2013-06-13 00:10:00,
2013-06-12 19:16:00,100.6,61.6,29.94,NNE,22,2.0,2.5,28,0.00,,---,0.00,VWS V14.01,2013-06-13 00:16:00,
2013-06-12 19:17:00,100.4,61.4,29.94,North,0,0.9,2.0,28,0.00,,---,0.00,VWS V14.01,2013-06-13 00:17:00,
2013-06-12 19:22:00,100.2,62.2,29.94,NNE,22,0.0,2.9,29,0.00,,---,0.00,VWS V14.01,2013-06-13 00:22:00,
2013-06-12 19:27:00,99.3,62.4,29.94,NE,45,1.1,4.9,30,0.00,,---,0.00,VWS V14.01,2013-06-13 00:27:00,
2013-06-12 19:33:00,98.4,62.6,29.94,NE,45,0.9,4.0,31,0.00,,---,0.00,VWS V14.01,2013-06-13 00:33:00,
2013-06-12 19:38:00,97.9,62.1,29.94,NE,45,2.7,3.8,31,0.00,,---,0.00,VWS V14.01,2013-06-13 00:38:00,
2013-06-12 19:44:00,97.7,62.9,29.97,NE,45,0.0,3.6,32,0.00,,---,0.00,VWS V14.01,2013-06-13 00:44:00,
2013-06-12 19:49:00,97.3,63.5,29.97,North,0,3.1,3.6,33,0.00,,---,0.00,VWS V14.01,2013-06-13 00:49:00,
2013-06-12 19:54:00,96.8,63.0,29.97,NE,45,2.0,2.7,33,0.00,,---,0.00,VWS V14.01,2013-06-13 00:54:00,
2013-06-12 20:00:00,96.1,63.2,29.97,NE,45,0.0,0.0,34,0.00,,---,0.00,VWS V14.01,2013-06-13 01:00:00,
2013-06-12 20:06:00,95.4,63.4,29.97,NE,45,3.6,5.4,35,0.00,,---,0.00,VWS V14.01,2013-06-13 01:06:00,
2013-06-12 20:11:00,94.8,64.5,29.97,NE,45,3.1,3.1,37,0.00,,---,0.00,VWS V14.01,2013-06-13 01:11:00,
2013-06-12 20:17:00,93.9,64.5,29.97,NE,45,3.6,3.6,38,0.00,,---,0.00,VWS V14.01,2013-06-13 01:17:00,
2013-06-12 20:22:00,93.2,64.6,29.97,NE,45,0.0,2.9,39,0.00,,---,0.00,VWS V14.01,2013-06-13 01:22:00,
2013-06-12 20:28:00,92.1,64.3,29.97,NE,45,0.0,0.0,40,0.00,,---,0.00,VWS V14.01,2013-06-13 01:28:00,
2013-06-12 20:37:00,90.9,65.9,29.97,North,0,0.0,0.0,44,0.00,,---,0.00,VWS V14.01,2013-06-13 01:37:00,
2013-06-12 20:43:00,90.3,66.1,29.97,NNE,22,1.1,1.6,45,0.00,,---,0.00,VWS V14.01,2013-06-13 01:43:00,
2013-06-12 20:49:00,89.8,66.9,29.97,NE,45,1.6,2.2,47,0.00,,---,0.00,VWS V14.01,2013-06-13 01:49:00,
2013-06-12 20:54:00,89.1,67.4,29.97,NE,45,1.1,1.6,49,0.00,,---,0.00,VWS V14.01,2013-06-13 01:54:00,
2013-06-12 21:00:00,88.7,68.3,29.97,NE,45,1.3,2.5,51,0.00,,---,0.00,VWS V14.01,2013-06-13 02:00:00,
2013-06-12 21:06:00,88.3,67.9,29.97,NE,45,0.0,2.2,51,0.00,,---,0.00,VWS V14.01,2013-06-13 02:06:00,
2013-06-12 21:11:00,88.2,68.3,29.97,ENE,68,1.3,2.2,52,0.00,,---,0.00,VWS V14.01,2013-06-13 02:11:00,
2013-06-12 21:17:00,87.6,67.8,29.97,NE,45,0.0,0.0,52,0.00,,---,0.00,VWS V14.01,2013-06-13 02:17:00,
2013-06-12 21:22:00,87.1,67.9,29.97,NE,45,0.0,0.0,53,0.00,,---,0.00,VWS V14.01,2013-06-13 02:22:00,
2013-06-12 21:28:00,86.9,68.3,29.97,ENE,68,0.0,0.0,54,0.00,,---,0.00,VWS V14.01,2013-06-13 02:28:00,
2013-06-12 21:33:00,86.5,68.5,29.97,NE,45,0.0,2.7,55,0.00,,---,0.00,VWS V14.01,2013-06-13 02:33:00,
2013-06-12 21:38:00,86.2,68.7,29.97,NE,45,1.3,2.5,56,0.00,,---,0.00,VWS V14.01,2013-06-13 02:38:00,
2013-06-12 21:43:00,86.0,69.0,29.97,NNE,22,3.1,3.1,57,0.00,,---,0.00,VWS V14.01,2013-06-13 02:43:00,
2013-06-12 21:49:00,85.8,69.3,29.97,ENE,68,0.0,0.0,58,0.00,,---,0.00,VWS V14.01,2013-06-13 02:49:00,
2013-06-12 21:54:00,85.6,69.7,29.97,East,90,0.0,0.0,59,0.00,,---,0.00,VWS V14.01,2013-06-13 02:54:00,
2013-06-12 22:00:00,85.3,69.3,29.97,ENE,68,1.3,2.2,59,0.00,,---,0.00,VWS V14.01,2013-06-13 03:00:00,
2013-06-12 22:06:00,84.9,69.5,29.97,ENE,68,0.0,0.0,60,0.00,,---,0.00,VWS V14.01,2013-06-13 03:06:00,
2013-06-12 22:12:00,84.7,69.3,30.00,NE,45,0.0,0.0,60,0.00,,---,0.00,VWS V14.01,2013-06-13 03:12:00,
2013-06-12 22:17:00,84.7,69.8,30.00,NNE,22,0.0,4.9,61,0.00,,---,0.00,VWS V14.01,2013-06-13 03:17:00,
2013-06-12 22:23:00,84.6,69.6,30.00,North,0,0.0,1.3,61,0.00,,---,0.00,VWS V14.01,2013-06-13 03:23:00,
2013-06-12 22:28:00,84.4,69.9,30.00,NE,45,0.0,2.9,62,0.00,,---,0.00,VWS V14.01,2013-06-13 03:28:00,
2013-06-12 22:34:00,84.2,69.8,30.00,East,90,1.6,2.2,62,0.00,,---,0.00,VWS V14.01,2013-06-13 03:34:00,
2013-06-12 22:39:00,83.8,69.9,30.00,ESE,112,0.0,2.0,63,0.00,,---,0.00,VWS V14.01,2013-06-13 03:39:00,
2013-06-12 22:45:00,83.3,69.9,30.00,East,90,0.0,1.3,64,0.00,,---,0.00,VWS V14.01,2013-06-13 03:45:00,
2013-06-12 22:50:00,82.9,69.5,30.00,SE,135,3.8,3.8,64,0.00,,---,0.00,VWS V14.01,2013-06-13 03:50:00,
2013-06-12 22:55:00,82.9,69.5,30.00,NE,45,0.0,0.0,64,0.00,,---,0.00,VWS V14.01,2013-06-13 03:55:00,
2013-06-12 23:01:00,83.1,69.7,30.00,East,90,2.5,2.7,64,0.00,,---,0.00,VWS V14.01,2013-06-13 04:01:00,
2013-06-12 23:02:00,83.1,69.2,30.00,NE,45,3.6,3.6,63,0.00,,---,0.00,VWS V14.01,2013-06-13 04:02:00,
2013-06-12 23:03:00,82.9,69.1,30.00,ENE,68,2.0,3.6,63,0.00,,---,0.00,VWS V14.01,2013-06-13 04:03:00,
2013-06-12 23:04:00,82.9,69.1,30.00,ESE,112,3.4,4.3,63,0.00,,---,0.00,VWS V14.01,2013-06-13 04:04:00,
2013-06-12 23:09:00,82.9,67.6,30.00,ENE,68,3.4,4.7,60,0.00,,---,0.00,VWS V14.01,2013-06-13 04:09:00,
2013-06-12 23:10:00,82.9,67.6,30.00,ENE,68,3.6,3.6,60,0.00,,---,0.00,VWS V14.01,2013-06-13 04:10:00,
2013-06-12 23:16:00,83.1,65.3,30.03,East,90,6.0,6.0,55,0.00,,---,0.00,VWS V14.01,2013-06-13 04:16:00,
2013-06-12 23:21:00,83.1,64.8,30.03,NE,45,3.4,5.6,54,0.00,,---,0.00,VWS V14.01,2013-06-13 04:21:00,
2013-06-12 23:26:00,82.9,63.5,30.03,North,0,0.0,4.3,52,0.00,,---,0.00,VWS V14.01,2013-06-13 04:26:00,
2013-06-12 23:32:00,82.9,61.8,30.03,NE,45,1.6,6.3,49,0.00,,---,0.00,VWS V14.01,2013-06-13 04:32:00,
2013-06-12 23:38:00,82.8,61.1,30.03,NE,45,6.5,8.1,48,0.00,,---,0.00,VWS V14.01,2013-06-13 04:38:00,
2013-06-12 23:43:00,82.6,60.3,30.03,NNE,22,2.2,4.9,47,0.00,,---,0.00,VWS V14.01,2013-06-13 04:43:00,
2013-06-12 23:48:00,82.4,60.2,30.03,NNE,22,2.7,5.8,47,0.00,,---,0.00,VWS V14.01,2013-06-13 04:48:00,
2013-06-12 23:54:00,82.2,60.0,30.03,ENE,68,2.7,7.6,47,0.00,,---,0.00,VWS V14.01,2013-06-13 04:54:00,
2013-06-12 23:59:00,81.9,60.3,30.03,NE,45,4.3,5.4,48,0.00,,---,0.00,VWS V14.01,2013-06-13 04:59:00,